createdAt,value
2024-01-27T00:00:19.199Z,7.90
2024-01-27T00:02:46.164Z,8.20
2024-01-27T00:05:13.550Z,8.00
2024-01-27T00:07:41.347Z,8.20
2024-01-27T00:10:08.860Z,8.00
2024-01-27T00:12:35.900Z,8.20
2024-01-27T00:15:02.782Z,8.60
2024-01-27T00:17:29.744Z,8.40
2024-01-27T00:19:56.669Z,8.50
2024-01-27T00:22:23.527Z,7.90
2024-01-27T00:24:50.484Z,7.70
2024-01-27T00:27:17.562Z,7.60
2024-01-27T00:29:44.579Z,7.30
2024-01-27T00:32:11.471Z,7.50
2024-01-27T00:34:38.339Z,7.50
2024-01-27T00:37:05.206Z,7.70
2024-01-27T00:39:34.111Z,7.30
2024-01-27T00:42:01.174Z,7.10
2024-01-27T00:44:28.096Z,7.10
2024-01-27T00:46:54.974Z,7.20
2024-01-27T00:49:22.207Z,7.50
2024-01-27T00:51:49.169Z,7.30
2024-01-27T00:54:16.042Z,7.40
2024-01-27T00:56:42.908Z,7.40
2024-01-27T00:59:09.726Z,7.50
2024-01-27T01:01:36.587Z,8.00
2024-01-27T01:04:03.660Z,8.20
2024-01-27T01:06:30.688Z,8.10
2024-01-27T01:08:57.629Z,8.00
2024-01-27T01:11:25.276Z,7.50
2024-01-27T01:13:52.509Z,7.20
2024-01-27T01:16:19.409Z,7.10
2024-01-27T01:18:46.294Z,7.80
2024-01-27T01:21:13.229Z,7.10
2024-01-27T01:23:40.115Z,7.00
2024-01-27T01:26:06.952Z,7.30
2024-01-27T01:28:33.994Z,7.00
2024-01-27T01:31:00.928Z,6.20
2024-01-27T01:33:27.980Z,6.40
2024-01-27T01:35:55.169Z,7.00
2024-01-27T01:38:22.047Z,7.00
2024-01-27T01:40:48.932Z,6.70
2024-01-27T01:43:15.799Z,6.50
2024-01-27T01:45:42.664Z,7.00
2024-01-27T01:48:10.385Z,7.30
2024-01-27T01:50:37.522Z,7.00
2024-01-27T01:53:05.537Z,6.70
2024-01-27T01:55:32.840Z,6.20
2024-01-27T01:57:59.664Z,6.10
2024-01-27T02:00:26.708Z,6.20
2024-01-27T02:02:53.800Z,6.60
2024-01-27T02:05:20.865Z,6.50
2024-01-27T02:07:47.787Z,6.60
2024-01-27T02:10:19.546Z,6.80
2024-01-27T02:12:46.785Z,6.30
2024-01-27T02:15:15.136Z,6.10
2024-01-27T02:17:42.988Z,6.20
2024-01-27T02:20:10.429Z,6.20
2024-01-27T02:22:37.742Z,6.90
2024-01-27T02:25:05.070Z,7.00
2024-01-27T02:27:32.167Z,6.80
2024-01-27T02:29:59.090Z,6.80
2024-01-27T02:32:25.939Z,7.20
2024-01-27T02:34:52.843Z,6.50
2024-01-27T02:37:20.745Z,6.20
2024-01-27T02:39:47.607Z,6.20
2024-01-27T02:42:14.515Z,6.60
2024-01-27T02:44:41.436Z,7.00
2024-01-27T02:47:08.672Z,7.20
2024-01-27T02:49:35.756Z,7.30
2024-01-27T02:52:02.708Z,7.40
2024-01-27T02:54:29.840Z,6.80
2024-01-27T02:56:57.038Z,6.60
2024-01-27T02:59:23.983Z,6.40
2024-01-27T03:01:50.866Z,6.70
2024-01-27T03:04:17.799Z,6.20
2024-01-27T03:06:46.112Z,6.30
2024-01-27T03:09:13.183Z,6.20
2024-01-27T03:11:40.046Z,6.10
2024-01-27T03:14:06.931Z,6.30
2024-01-27T03:16:33.991Z,6.10
2024-01-27T03:19:01.040Z,5.80
2024-01-27T03:21:28.415Z,6.30
2024-01-27T03:23:55.303Z,6.70
2024-01-27T03:26:22.120Z,6.70
2024-01-27T03:28:48.974Z,7.10
2024-01-27T03:31:15.868Z,6.80
2024-01-27T03:33:42.975Z,6.80
2024-01-27T03:36:14.404Z,6.50
2024-01-27T03:38:42.054Z,6.50
2024-01-27T03:41:08.982Z,6.50
2024-01-27T03:43:35.991Z,6.60
2024-01-27T03:46:04.186Z,6.40
2024-01-27T03:48:31.477Z,6.20
2024-01-27T03:50:58.570Z,6.00
2024-01-27T03:53:25.423Z,6.00
2024-01-27T03:55:52.637Z,6.00
2024-01-27T03:58:19.725Z,6.00
2024-01-27T04:00:46.798Z,6.00
2024-01-27T04:03:13.796Z,6.00
2024-01-27T04:05:40.766Z,5.90
2024-01-27T04:08:07.901Z,5.60
2024-01-27T04:10:35.310Z,5.70
2024-01-27T04:13:02.335Z,6.00
2024-01-27T04:15:29.373Z,6.00
2024-01-27T04:17:57.162Z,5.80
2024-01-27T04:20:24.080Z,5.50
2024-01-27T04:22:50.976Z,5.30
2024-01-27T04:25:17.819Z,5.10
2024-01-27T04:27:44.670Z,5.10
2024-01-27T04:30:14.065Z,5.10
2024-01-27T04:32:41.044Z,5.10
2024-01-27T04:35:12.037Z,5.40
2024-01-27T04:37:39.859Z,5.60
2024-01-27T04:40:07.462Z,6.00
2024-01-27T04:42:39.953Z,5.90
2024-01-27T04:45:08.109Z,5.60
2024-01-27T04:47:35.195Z,5.80
2024-01-27T04:50:02.345Z,5.60
2024-01-27T04:52:29.276Z,5.40
2024-01-27T04:54:56.108Z,5.50
2024-01-27T04:57:22.953Z,5.30
2024-01-27T04:59:49.901Z,5.40
2024-01-27T05:02:16.779Z,5.20
2024-01-27T05:04:43.653Z,5.10
2024-01-27T05:07:10.809Z,5.10
2024-01-27T05:09:37.869Z,5.10
2024-01-27T05:12:05.238Z,5.30
2024-01-27T05:14:32.166Z,5.40
2024-01-27T05:16:59.040Z,5.40
2024-01-27T05:19:26.030Z,5.80
2024-01-27T05:21:52.884Z,5.70
2024-01-27T05:24:20.529Z,5.90
2024-01-27T05:26:47.401Z,5.90
2024-01-27T05:29:14.313Z,6.00
2024-01-27T05:31:44.339Z,5.50
2024-01-27T05:34:12.476Z,5.40
2024-01-27T05:36:39.385Z,5.50
2024-01-27T05:39:06.868Z,5.60
2024-01-27T05:41:34.001Z,5.50
2024-01-27T05:44:00.850Z,5.40
2024-01-27T05:46:28.001Z,5.40
2024-01-27T05:48:55.544Z,5.20
2024-01-27T05:51:24.448Z,5.50
2024-01-27T05:53:51.659Z,5.40
2024-01-27T05:56:24.380Z,5.40
2024-01-27T05:58:51.258Z,5.60
2024-01-27T06:01:21.710Z,5.30
2024-01-27T06:03:48.884Z,5.40
2024-01-27T06:06:16.053Z,5.40
2024-01-27T06:08:43.239Z,5.30
2024-01-27T06:11:10.761Z,5.60
2024-01-27T06:13:41.957Z,5.60
2024-01-27T06:16:12.835Z,5.40
2024-01-27T06:18:40.006Z,5.50
2024-01-27T06:21:07.736Z,5.40
2024-01-27T06:23:34.782Z,5.00
2024-01-27T06:26:09.016Z,5.40
2024-01-27T06:28:36.725Z,5.60
2024-01-27T06:31:05.125Z,4.60
2024-01-27T06:33:33.011Z,5.40
2024-01-27T06:36:00.112Z,5.60
2024-01-27T06:38:28.400Z,5.90
2024-01-27T06:40:55.502Z,6.00
2024-01-27T06:43:22.413Z,6.30
2024-01-27T06:45:49.226Z,6.40
2024-01-27T06:48:16.207Z,6.30
2024-01-27T06:50:43.710Z,6.10
2024-01-27T06:53:11.696Z,5.40
2024-01-27T06:55:42.467Z,5.40
2024-01-27T06:58:10.532Z,5.50
2024-01-27T07:00:37.501Z,5.80
2024-01-27T07:03:05.389Z,5.40
2024-01-27T07:05:34.365Z,5.30
2024-01-27T07:08:01.512Z,5.00
2024-01-27T07:10:28.362Z,4.90
2024-01-27T07:12:55.218Z,4.90
2024-01-27T07:15:22.932Z,5.70
2024-01-27T07:17:49.930Z,5.60
2024-01-27T07:20:16.957Z,5.50
2024-01-27T07:22:43.773Z,5.90
2024-01-27T07:25:11.355Z,5.60
2024-01-27T07:27:38.315Z,5.60
2024-01-27T07:30:06.716Z,5.60
2024-01-27T07:32:34.396Z,5.60
2024-01-27T07:35:01.357Z,5.30
2024-01-27T07:37:28.305Z,5.90
2024-01-27T07:39:55.139Z,5.90
2024-01-27T07:42:22.056Z,5.70
2024-01-27T07:44:50.556Z,5.70
2024-01-27T07:47:17.867Z,5.90
2024-01-27T07:49:45.969Z,5.10
2024-01-27T07:52:12.860Z,5.00
2024-01-27T07:54:41.296Z,5.30
2024-01-27T07:57:08.550Z,5.00
2024-01-27T07:59:35.801Z,4.80
2024-01-27T08:02:02.724Z,5.00
2024-01-27T08:04:30.100Z,5.30
2024-01-27T08:06:57.122Z,5.40
2024-01-27T08:09:25.064Z,5.30
2024-01-27T08:11:54.988Z,6.00
2024-01-27T08:14:22.326Z,5.70
2024-01-27T08:16:49.296Z,6.00
2024-01-27T08:19:22.182Z,5.60
2024-01-27T08:21:49.411Z,6.10
2024-01-27T08:24:16.813Z,6.00
2024-01-27T08:26:43.689Z,5.60
2024-01-27T08:29:11.090Z,6.00
2024-01-27T08:31:40.562Z,6.10
2024-01-27T08:34:08.040Z,6.70
2024-01-27T08:36:35.925Z,6.80
2024-01-27T08:39:03.237Z,7.00
2024-01-27T08:41:30.259Z,7.20
2024-01-27T08:43:57.179Z,7.70
2024-01-27T08:46:24.178Z,7.40
2024-01-27T08:48:51.281Z,7.20
2024-01-27T08:51:19.296Z,7.10
2024-01-27T08:53:52.223Z,7.10
2024-01-27T08:56:19.629Z,7.00
2024-01-27T08:58:48.730Z,7.00
2024-01-27T09:01:17.824Z,7.20
2024-01-27T09:03:45.124Z,7.10
2024-01-27T09:06:12.327Z,7.30
2024-01-27T09:08:39.388Z,7.90
2024-01-27T09:11:06.471Z,8.00
2024-01-27T09:13:33.375Z,8.10
2024-01-27T09:16:01.187Z,8.40
2024-01-27T09:18:29.263Z,8.30
2024-01-27T09:20:56.737Z,8.40
2024-01-27T09:23:24.102Z,8.40
2024-01-27T09:25:51.009Z,8.20
2024-01-27T09:28:17.936Z,8.30
2024-01-27T09:30:44.964Z,8.40
2024-01-27T09:33:12.572Z,8.70
2024-01-27T09:35:39.653Z,8.50
2024-01-27T09:38:10.389Z,8.50
2024-01-27T09:40:37.287Z,8.70
2024-01-27T09:43:04.385Z,8.20
2024-01-27T09:45:31.366Z,8.30
2024-01-27T09:48:01.469Z,8.20
2024-01-27T09:50:29.085Z,8.30
2024-01-27T09:52:56.082Z,8.30
2024-01-27T09:55:22.953Z,8.20
2024-01-27T09:57:50.008Z,7.90
2024-01-27T10:00:19.637Z,7.90
2024-01-27T10:02:50.144Z,7.80
2024-01-27T10:05:17.852Z,8.20
2024-01-27T10:07:44.700Z,8.00
2024-01-27T10:10:11.821Z,7.80
2024-01-27T10:12:43.591Z,7.90
2024-01-27T10:15:21.292Z,8.30
2024-01-27T10:17:48.216Z,8.00
2024-01-27T10:20:16.781Z,8.00
2024-01-27T10:22:46.129Z,8.10
2024-01-27T10:25:13.588Z,8.40
2024-01-27T10:27:40.839Z,8.60
2024-01-27T10:30:18.398Z,8.50
2024-01-27T10:32:56.759Z,8.40
2024-01-27T10:35:23.855Z,8.70
2024-01-27T10:37:58.526Z,8.60
2024-01-27T10:40:27.699Z,8.70
2024-01-27T10:43:09.159Z,8.80
2024-01-27T10:45:39.822Z,9.00
2024-01-27T10:48:09.321Z,9.30
2024-01-27T10:50:44.509Z,9.80
2024-01-27T10:53:31.739Z,9.70
2024-01-27T10:55:59.705Z,9.80
2024-01-27T10:58:29.300Z,10.60
2024-01-27T11:00:58.224Z,10.70
2024-01-27T11:03:26.930Z,11.30
2024-01-27T11:05:55.748Z,11.60
2024-01-27T11:08:29.197Z,10.90
2024-01-27T11:10:56.986Z,11.40
2024-01-27T11:13:25.532Z,11.50
2024-01-27T11:15:56.293Z,12.00
2024-01-27T11:18:23.594Z,12.00
2024-01-27T11:20:54.545Z,12.30
2024-01-27T11:23:21.502Z,12.30
2024-01-27T11:25:48.348Z,12.90
2024-01-27T11:28:17.559Z,13.20
2024-01-27T11:30:50.456Z,12.70
2024-01-27T11:33:18.993Z,14.00
2024-01-27T11:35:45.959Z,13.90
2024-01-27T11:38:14.200Z,13.50
2024-01-27T11:40:51.014Z,13.40
2024-01-27T11:43:17.954Z,13.30
2024-01-27T11:45:45.181Z,12.90
2024-01-27T11:48:12.904Z,13.10
2024-01-27T11:50:39.852Z,12.40
2024-01-27T11:53:10.761Z,12.40
2024-01-27T11:55:40.284Z,12.40
2024-01-27T11:58:08.201Z,12.30
2024-01-27T12:00:35.026Z,11.80
2024-01-27T12:03:01.999Z,11.70
2024-01-27T12:05:29.089Z,11.50
2024-01-27T12:07:56.057Z,11.00
2024-01-27T12:10:22.973Z,11.20
2024-01-27T12:12:49.792Z,10.90
2024-01-27T12:15:16.893Z,10.70
2024-01-27T12:17:43.755Z,10.90
2024-01-27T12:20:17.746Z,10.70
2024-01-27T12:22:45.072Z,11.30
2024-01-27T12:25:16.212Z,11.00
2024-01-27T12:27:43.502Z,10.80
2024-01-27T12:30:11.694Z,11.50
2024-01-27T12:32:38.736Z,11.90
2024-01-27T12:35:07.005Z,11.50
2024-01-27T12:37:35.419Z,11.40
2024-01-27T12:40:02.382Z,10.80
2024-01-27T12:42:29.482Z,10.50
2024-01-27T12:44:56.406Z,10.40
2024-01-27T12:47:23.295Z,10.90
2024-01-27T12:49:50.660Z,11.30
2024-01-27T12:52:17.641Z,10.70
2024-01-27T12:54:45.441Z,11.10
2024-01-27T12:57:12.536Z,11.00
2024-01-27T12:59:39.472Z,10.90
2024-01-27T13:02:06.532Z,10.80
2024-01-27T13:04:33.421Z,11.20
2024-01-27T13:07:00.911Z,11.10
2024-01-27T13:09:27.952Z,10.90
2024-01-27T13:11:54.893Z,11.90
2024-01-27T13:14:21.997Z,12.10
2024-01-27T13:16:48.985Z,11.40
2024-01-27T13:19:16.032Z,11.10
2024-01-27T13:21:43.084Z,11.20
2024-01-27T13:24:10.234Z,11.30
2024-01-27T13:26:40.484Z,11.70
2024-01-27T13:29:07.795Z,11.60
2024-01-27T13:31:34.976Z,11.70
2024-01-27T13:34:06.575Z,11.50
2024-01-27T13:36:35.024Z,11.30
2024-01-27T13:39:02.000Z,11.60
2024-01-27T13:41:29.192Z,11.60
2024-01-27T13:43:56.037Z,12.20
2024-01-27T13:46:24.218Z,11.60
2024-01-27T13:48:53.042Z,11.50
2024-01-27T13:51:20.136Z,11.60
2024-01-27T13:53:48.079Z,11.40
2024-01-27T13:56:15.802Z,12.50
2024-01-27T13:58:44.262Z,12.60
2024-01-27T14:01:11.344Z,11.80
2024-01-27T14:03:38.765Z,11.50
2024-01-27T14:06:07.284Z,12.20
2024-01-27T14:08:34.499Z,12.50
2024-01-27T14:11:01.360Z,12.30
2024-01-27T14:13:28.220Z,12.30
2024-01-27T14:15:55.340Z,12.40
2024-01-27T14:18:23.065Z,12.40
2024-01-27T14:20:51.690Z,12.70
2024-01-27T14:23:18.855Z,13.00
2024-01-27T14:25:47.708Z,12.10
2024-01-27T14:28:16.075Z,11.80
2024-01-27T14:30:44.913Z,12.40
2024-01-27T14:33:17.249Z,12.20
2024-01-27T14:35:44.208Z,12.60
2024-01-27T14:38:11.283Z,12.20
2024-01-27T14:40:38.706Z,12.60
2024-01-27T14:43:09.958Z,12.80
2024-01-27T14:45:37.504Z,13.30
2024-01-27T14:48:05.770Z,13.40
2024-01-27T14:50:33.569Z,12.90
2024-01-27T14:53:03.090Z,12.10
2024-01-27T14:55:31.791Z,12.80
2024-01-27T14:57:58.740Z,13.10
2024-01-27T15:00:26.287Z,12.90
2024-01-27T15:02:53.441Z,12.40
2024-01-27T15:05:20.279Z,12.70
2024-01-27T15:07:47.964Z,12.20
2024-01-27T15:10:14.992Z,12.30
2024-01-27T15:12:42.491Z,11.80
2024-01-27T15:15:10.080Z,11.60
2024-01-27T15:17:37.016Z,11.40
2024-01-27T15:20:04.614Z,11.90
2024-01-27T15:22:31.475Z,11.30
2024-01-27T15:24:58.626Z,11.60
2024-01-27T15:27:25.725Z,11.50
2024-01-27T15:29:55.662Z,11.40
2024-01-27T15:32:24.912Z,11.50
2024-01-27T15:34:52.611Z,11.60
2024-01-27T15:37:20.152Z,11.20
2024-01-27T15:39:47.175Z,11.10
2024-01-27T15:42:14.774Z,11.10
2024-01-27T15:44:41.753Z,11.20
2024-01-27T15:47:09.337Z,11.20
2024-01-27T15:49:36.441Z,11.20
2024-01-27T15:52:03.710Z,11.10
2024-01-27T15:54:30.600Z,11.00
2024-01-27T15:56:57.610Z,10.60
2024-01-27T15:59:24.606Z,10.40
2024-01-27T16:01:51.788Z,10.30
2024-01-27T16:04:19.397Z,10.20
2024-01-27T16:06:46.749Z,10.10
2024-01-27T16:09:14.077Z,10.20
2024-01-27T16:11:40.986Z,10.30
2024-01-27T16:14:07.853Z,10.30
2024-01-27T16:16:35.138Z,10.40
2024-01-27T16:19:02.216Z,10.30
2024-01-27T16:21:31.594Z,10.30
2024-01-27T16:24:00.669Z,10.50
2024-01-27T16:26:28.418Z,10.40
2024-01-27T16:28:55.555Z,10.40
2024-01-27T16:31:22.913Z,10.60
2024-01-27T16:33:50.139Z,10.50
2024-01-27T16:36:17.230Z,10.00
2024-01-27T16:38:45.254Z,9.90
2024-01-27T16:41:12.453Z,9.80
2024-01-27T16:43:39.282Z,9.70
2024-01-27T16:46:08.100Z,9.70
2024-01-27T16:48:36.023Z,10.00
2024-01-27T16:51:05.023Z,9.50
2024-01-27T16:53:33.916Z,9.80
2024-01-27T16:56:01.865Z,9.80
2024-01-27T16:58:28.919Z,9.80
2024-01-27T17:00:57.216Z,9.70
2024-01-27T17:03:24.238Z,9.90
2024-01-27T17:05:51.274Z,9.60
2024-01-27T17:08:18.178Z,9.60
2024-01-27T17:10:46.420Z,9.50
2024-01-27T17:13:13.442Z,9.50
2024-01-27T17:15:42.332Z,9.40
2024-01-27T17:18:11.065Z,9.50
2024-01-27T17:20:40.590Z,9.60
2024-01-27T17:23:08.238Z,9.70
2024-01-27T17:25:35.090Z,9.60
2024-01-27T17:28:01.994Z,9.50
2024-01-27T17:30:29.173Z,9.50
2024-01-27T17:32:56.141Z,9.40
2024-01-27T17:35:23.119Z,9.30
2024-01-27T17:37:49.969Z,9.30
2024-01-27T17:40:17.438Z,9.20
2024-01-27T17:42:44.895Z,9.20
2024-01-27T17:45:11.829Z,9.00
2024-01-27T17:47:38.801Z,9.00
2024-01-27T17:50:07.112Z,9.20
2024-01-27T17:52:34.450Z,9.10
2024-01-27T17:55:01.257Z,9.00
2024-01-27T17:57:30.194Z,9.40
2024-01-27T17:59:57.377Z,8.90
2024-01-27T18:02:27.121Z,9.00
2024-01-27T18:04:55.395Z,9.00
2024-01-27T18:07:22.677Z,9.00
2024-01-27T18:09:49.836Z,9.00
2024-01-27T18:12:16.794Z,9.10
2024-01-27T18:14:43.717Z,9.00
2024-01-27T18:17:10.630Z,9.30
2024-01-27T18:19:37.588Z,9.20
2024-01-27T18:22:07.642Z,9.00
2024-01-27T18:24:35.065Z,8.40
2024-01-27T18:27:02.882Z,7.90
2024-01-27T18:29:30.551Z,7.80
2024-01-27T18:31:59.629Z,7.60
2024-01-27T18:34:26.788Z,7.60
2024-01-27T18:36:54.177Z,7.60
2024-01-27T18:39:21.260Z,7.30
2024-01-27T18:41:48.401Z,7.40
2024-01-27T18:44:15.775Z,7.60
2024-01-27T18:46:42.855Z,7.80
2024-01-27T18:49:10.608Z,7.80
2024-01-27T18:51:37.595Z,8.00
2024-01-27T18:54:04.544Z,8.20
2024-01-27T18:56:31.476Z,8.40
2024-01-27T18:58:58.420Z,8.50
2024-01-27T19:01:25.443Z,8.40
2024-01-27T19:03:52.507Z,8.40
2024-01-27T19:06:19.667Z,8.00
2024-01-27T19:08:46.669Z,7.90
2024-01-27T19:11:14.061Z,7.90
2024-01-27T19:13:41.126Z,7.90
2024-01-27T19:16:11.009Z,7.90
2024-01-27T19:18:39.319Z,7.50
2024-01-27T19:21:06.402Z,7.90
2024-01-27T19:23:33.240Z,8.20
2024-01-27T19:26:00.244Z,8.40
2024-01-27T19:28:27.146Z,8.40
2024-01-27T19:30:54.057Z,8.80
2024-01-27T19:33:21.099Z,8.90
2024-01-27T19:35:48.989Z,8.70
2024-01-27T19:38:16.716Z,8.80
2024-01-27T19:40:52.058Z,8.40
2024-01-27T19:43:26.932Z,8.10
2024-01-27T19:45:53.827Z,8.10
2024-01-27T19:48:21.032Z,8.60
2024-01-27T19:50:48.222Z,8.20
2024-01-27T19:53:16.625Z,8.00
2024-01-27T19:55:43.755Z,8.40
2024-01-27T19:58:10.588Z,7.90
2024-01-27T20:00:37.527Z,8.10
2024-01-27T20:03:04.550Z,8.40
2024-01-27T20:05:31.526Z,7.70
2024-01-27T20:07:58.441Z,7.40
2024-01-27T20:10:25.309Z,7.70
2024-01-27T20:12:57.292Z,7.80
2024-01-27T20:15:27.310Z,7.50
2024-01-27T20:17:56.143Z,7.40
2024-01-27T20:20:23.244Z,7.40
2024-01-27T20:22:50.895Z,7.50
2024-01-27T20:25:17.812Z,7.40
2024-01-27T20:27:46.304Z,7.30
2024-01-27T20:30:13.879Z,7.60
2024-01-27T20:32:41.741Z,7.30
2024-01-27T20:35:09.301Z,7.40
2024-01-27T20:37:36.268Z,7.30
2024-01-27T20:40:03.209Z,7.30
2024-01-27T20:42:30.084Z,7.40
2024-01-27T20:44:57.559Z,7.30
2024-01-27T20:47:24.479Z,7.40
2024-01-27T20:49:51.459Z,7.20
2024-01-27T20:52:19.643Z,7.50
2024-01-27T20:54:46.545Z,7.30
2024-01-27T20:57:13.429Z,7.00
2024-01-27T20:59:40.302Z,6.80
2024-01-27T21:02:07.226Z,6.80
2024-01-27T21:04:34.257Z,7.20
2024-01-27T21:07:01.376Z,7.40
2024-01-27T21:09:28.376Z,7.60
2024-01-27T21:11:55.267Z,7.40
2024-01-27T21:14:22.095Z,7.50
2024-01-27T21:16:49.292Z,7.60
2024-01-27T21:19:16.264Z,7.50
2024-01-27T21:21:43.305Z,7.10
2024-01-27T21:24:15.047Z,6.60
2024-01-27T21:26:42.590Z,6.40
2024-01-27T21:29:10.426Z,6.50
2024-01-27T21:31:37.965Z,6.50
2024-01-27T21:34:05.003Z,6.60
2024-01-27T21:36:32.018Z,6.70
2024-01-27T21:39:00.237Z,6.80
2024-01-27T21:41:27.293Z,6.50
2024-01-27T21:43:58.429Z,6.40
2024-01-27T21:46:25.591Z,6.40
2024-01-27T21:48:52.963Z,6.40
2024-01-27T21:51:20.192Z,6.50
2024-01-27T21:53:47.120Z,6.90
2024-01-27T21:56:14.052Z,6.40
2024-01-27T21:58:41.021Z,6.30
2024-01-27T22:01:08.006Z,6.30
2024-01-27T22:03:38.522Z,6.30
2024-01-27T22:06:08.475Z,6.50
2024-01-27T22:08:40.043Z,6.70
2024-01-27T22:11:07.000Z,6.70
2024-01-27T22:13:33.938Z,6.80
2024-01-27T22:16:02.257Z,6.90
2024-01-27T22:18:31.883Z,6.50
2024-01-27T22:20:59.137Z,7.00
2024-01-27T22:23:26.043Z,6.80
2024-01-27T22:25:53.855Z,7.00
2024-01-27T22:28:20.674Z,7.00
2024-01-27T22:30:47.629Z,7.00
2024-01-27T22:33:14.647Z,7.10
2024-01-27T22:35:41.605Z,7.10
2024-01-27T22:38:08.870Z,7.30
2024-01-27T22:40:37.108Z,7.00
2024-01-27T22:43:05.061Z,7.00
2024-01-27T22:45:32.024Z,7.10
2024-01-27T22:47:59.170Z,6.90
2024-01-27T22:50:26.151Z,6.40
2024-01-27T22:52:52.984Z,6.60
2024-01-27T22:55:21.974Z,6.50
2024-01-27T22:57:49.018Z,6.70
2024-01-27T23:00:34.643Z,6.80
2024-01-27T23:03:06.194Z,7.30
2024-01-27T23:05:33.251Z,7.10
2024-01-27T23:08:01.177Z,7.20
2024-01-27T23:10:35.336Z,7.10
2024-01-27T23:13:04.138Z,7.00
2024-01-27T23:15:31.205Z,7.00
2024-01-27T23:17:58.215Z,6.80
2024-01-27T23:20:25.493Z,6.70
2024-01-27T23:22:52.415Z,6.70
2024-01-27T23:25:19.226Z,6.80
2024-01-27T23:27:46.116Z,7.00
2024-01-27T23:30:13.227Z,7.10
2024-01-27T23:32:40.293Z,7.10
2024-01-27T23:35:08.644Z,6.70
2024-01-27T23:37:36.759Z,6.40
2024-01-27T23:40:04.925Z,6.30
2024-01-27T23:42:31.851Z,6.60
2024-01-27T23:44:58.754Z,6.50
2024-01-27T23:47:25.613Z,6.60
2024-01-27T23:49:52.976Z,6.70
2024-01-27T23:52:25.395Z,6.90
2024-01-27T23:54:53.676Z,6.80
2024-01-27T23:57:20.609Z,6.80
2024-01-27T23:59:51.290Z,6.70
